Point Leamington, Canada
Current Conditions -  °F | °C
As of 11:00 PM on Wednesday 22 Oct 2014 (Local Time) from CYQX Reporting Station
Broken Clouds Broken Clouds  
Wind Chill: 41°   Ceiling: 3400
Heat Index: 41°   Visibility: 20mi
Dew Point: 39°   Wind: 0mph
Humidity: 93%   Direction: NA
Pressure: 30.46"   Gusts: NA
Location:  49.32°N, 55.4°W
Report Text: CYQX 230100Z 00000KT 20SM BKN034 05/04 A3046 RMK SC7 SLP319
Loading
Personal Weather Stations






























Interactive Weather Map
Tropical Storm Tracking
New forecast layout! Learn more

10-Day Weather Forecast

Advertisements
Track Severe Weather on mobile